Time;durP1;ratioP1;P1;durP2;ratioP2;P2;SDS_P1;SDS_P2;PMS_P1;PMS_P2;Temp;Humidity;BMP_temperature;BMP_pressure;BME280_temperature;BME280_humidity;BME280_pressure;Samples;Min_cycle;Max_cycle;Signal;HPM_P1;HPM_P2
2023/07/24 00:02:19;;;;;;;11.60;3.20;;;26.70;83.50;;;;;;5006999;28;20330;-68
2023/07/24 00:04:45;;;;;;;10.02;3.22;;;26.80;83.20;;;;;;5026159;28;20184;-68
2023/07/24 00:07:11;;;;;;;8.52;3.38;;;26.80;83.60;;;;;;5022234;28;20229;-68
2023/07/24 00:09:37;;;;;;;11.02;2.95;;;26.80;83.30;;;;;;5019993;28;20714;-68
2023/07/24 00:12:04;;;;;;;6.82;2.95;;;26.80;83.30;;;;;;5019569;28;20947;-68
2023/07/24 00:14:30;;;;;;;9.68;3.65;;;26.80;83.00;;;;;;5023337;28;20687;-68
2023/07/24 00:16:56;;;;;;;9.95;3.30;;;26.80;82.90;;;;;;5022440;28;20693;-68
2023/07/24 00:19:22;;;;;;;9.80;3.33;;;26.80;82.90;;;;;;5027742;28;20574;-68
2023/07/24 00:21:48;;;;;;;13.07;3.38;;;26.80;82.40;;;;;;5018351;28;20275;-68
2023/07/24 00:24:15;;;;;;;10.27;3.20;;;26.80;82.00;;;;;;5019436;28;20226;-68
2023/07/24 00:26:41;;;;;;;11.75;3.20;;;26.90;82.20;;;;;;5034891;28;20675;-68
2023/07/24 00:29:07;;;;;;;10.82;3.30;;;26.90;81.80;;;;;;5018814;28;20242;-68
2023/07/24 00:31:33;;;;;;;9.40;3.47;;;26.90;81.80;;;;;;5003169;28;20227;-68
2023/07/24 00:34:00;;;;;;;9.65;3.10;;;26.90;81.70;;;;;;5017927;28;20195;-68
2023/07/24 00:36:27;;;;;;;9.38;3.60;;;26.90;81.70;;;;;;5022175;28;20187;-68
2023/07/24 00:38:53;;;;;;;5.40;2.70;;;26.90;81.40;;;;;;5018765;28;20932;-68
2023/07/24 00:41:19;;;;;;;13.07;3.15;;;26.90;81.40;;;;;;5006700;28;20218;-68
2023/07/24 00:43:45;;;;;;;9.00;3.53;;;26.90;81.80;;;;;;5022667;28;20199;-68
2023/07/24 00:46:12;;;;;;;10.80;3.30;;;26.90;81.70;;;;;;5019083;28;20299;-68
2023/07/24 00:48:39;;;;;;;17.70;4.32;;;26.90;81.10;;;;;;5018844;28;20871;-68
2023/07/24 00:51:06;;;;;;;6.55;2.85;;;26.90;81.10;;;;;;5022776;28;20583;-68
2023/07/24 00:53:33;;;;;;;4.88;2.75;;;26.90;80.80;;;;;;5031594;28;20176;-68
2023/07/24 00:55:59;;;;;;;10.87;3.50;;;26.90;80.60;;;;;;5025198;28;20218;-68
2023/07/24 00:58:26;;;;;;;15.55;3.20;;;26.80;80.60;;;;;;5018618;28;20271;-68
2023/07/24 01:00:53;;;;;;;9.15;3.13;;;26.80;80.60;;;;;;5005343;28;20552;-68
2023/07/24 01:03:20;;;;;;;10.13;3.30;;;26.80;80.70;;;;;;5022737;28;20180;-68
2023/07/24 01:05:46;;;;;;;8.15;3.53;;;26.80;81.00;;;;;;5032990;28;20528;-68
2023/07/24 01:08:12;;;;;;;8.68;3.17;;;26.80;80.90;;;;;;5021208;28;20583;-68
2023/07/24 01:10:39;;;;;;;7.32;3.00;;;26.70;80.90;;;;;;5029476;28;20215;-68
2023/07/24 01:13:14;;;;;;;10.35;2.80;;;26.70;81.00;;;;;;5023962;28;20745;-68
2023/07/24 01:16:03;;;;;;;11.13;3.22;;;26.60;81.00;;;;;;5018962;28;20263;-68
2023/07/24 01:18:30;;;;;;;12.75;3.65;;;26.70;81.40;;;;;;5020389;28;20279;-68
2023/07/24 01:21:00;;;;;;;9.85;2.90;;;26.70;81.40;;;;;;5018516;28;20187;-68
2023/07/24 01:23:57;;;;;;;11.90;3.42;;;26.70;81.60;;;;;;5023382;28;20215;-68
2023/07/24 01:26:26;;;;;;;12.80;3.85;;;26.70;81.60;;;;;;5024270;28;20938;-68
2023/07/24 01:28:52;;;;;;;6.43;2.70;;;26.80;81.50;;;;;;5023617;28;20184;-67
2023/07/24 01:31:18;;;;;;;14.60;3.25;;;26.70;81.60;;;;;;5020922;28;20215;-67
2023/07/24 01:33:45;;;;;;;10.15;3.35;;;26.70;81.40;;;;;;5020281;28;20196;-68
2023/07/24 01:36:14;;;;;;;9.88;3.28;;;26.70;81.60;;;;;;5023591;28;20184;-68
2023/07/24 01:38:41;;;;;;;11.40;3.45;;;26.70;82.10;;;;;;5014716;28;20177;-68
2023/07/24 01:41:08;;;;;;;8.32;3.10;;;26.70;82.40;;;;;;5022026;28;20184;-67
2023/07/24 01:43:35;;;;;;;9.05;3.15;;;26.70;82.70;;;;;;5024939;28;20199;-67
2023/07/24 01:46:01;;;;;;;12.25;3.35;;;26.70;82.70;;;;;;5019925;28;20219;-68
2023/07/24 01:48:27;;;;;;;13.48;3.42;;;26.70;82.40;;;;;;5024185;28;20254;-67
2023/07/24 01:50:53;;;;;;;13.27;3.45;;;26.60;82.90;;;;;;5023184;28;20204;-67
2023/07/24 01:53:20;;;;;;;11.65;2.92;;;26.60;83.10;;;;;;5022837;28;20251;-67
2023/07/24 01:55:46;;;;;;;8.55;2.90;;;26.60;83.10;;;;;;5020581;28;20196;-68
2023/07/24 01:58:12;;;;;;;10.52;3.58;;;26.60;83.10;;;;;;5024058;28;20180;-68
2023/07/24 02:00:38;;;;;;;8.77;3.15;;;26.60;83.30;;;;;;5022253;28;20203;-68
2023/07/24 02:03:05;;;;;;;9.52;3.10;;;26.60;83.20;;;;;;5023203;28;20203;-67
2023/07/24 02:05:31;;;;;;;16.83;3.92;;;26.60;83.40;;;;;;5019683;28;20279;-67
2023/07/24 02:07:57;;;;;;;8.93;3.47;;;26.50;83.20;;;;;;5022137;28;20199;-68
2023/07/24 02:10:24;;;;;;;8.63;3.38;;;26.50;83.30;;;;;;5022722;28;20203;-68
2023/07/24 02:12:50;;;;;;;9.13;2.85;;;26.50;83.70;;;;;;5023475;28;20547;-68
2023/07/24 02:15:16;;;;;;;11.93;3.63;;;26.40;84.00;;;;;;5021649;28;20578;-68
2023/07/24 02:17:42;;;;;;;12.75;3.28;;;26.40;84.30;;;;;;5023624;28;20689;-68
2023/07/24 02:20:09;;;;;;;11.63;3.33;;;26.30;84.60;;;;;;5023944;28;20587;-68
2023/07/24 02:22:35;;;;;;;10.98;3.65;;;26.30;84.60;;;;;;5023072;28;20195;-68
2023/07/24 02:25:01;;;;;;;15.10;3.53;;;26.20;85.00;;;;;;5020501;28;20184;-68
2023/07/24 02:27:34;;;;;;;17.80;4.30;;;26.20;85.50;;;;;;5023201;28;20271;-68
2023/07/24 02:30:01;;;;;;;8.43;3.42;;;26.10;86.20;;;;;;5019239;28;20184;-68
2023/07/24 02:32:27;;;;;;;16.70;4.35;;;26.10;87.60;;;;;;5021043;28;20342;-68
2023/07/24 02:34:53;;;;;;;14.52;4.18;;;26.10;88.50;;;;;;5030605;28;20789;-68
2023/07/24 02:37:20;;;;;;;15.85;4.00;;;26.10;90.40;;;;;;5021744;28;21048;-68
2023/07/24 02:39:46;;;;;;;11.48;4.05;;;26.00;90.80;;;;;;5020806;28;20855;-68
2023/07/24 02:42:12;;;;;;;16.33;4.43;;;26.00;92.20;;;;;;5022595;28;20855;-68
2023/07/24 02:44:39;;;;;;;12.68;4.28;;;26.00;92.30;;;;;;5034034;28;20199;-68
2023/07/24 02:47:05;;;;;;;15.23;4.75;;;26.10;92.20;;;;;;5022809;28;20222;-67
2023/07/24 02:49:32;;;;;;;14.57;4.20;;;26.00;92.10;;;;;;5021832;28;20194;-67
2023/07/24 02:51:59;;;;;;;18.98;4.00;;;25.90;91.80;;;;;;5003129;28;20211;-67
2023/07/24 02:54:26;;;;;;;12.13;3.75;;;26.00;91.40;;;;;;5021524;28;20196;-68
2023/07/24 02:56:53;;;;;;;14.98;3.85;;;26.10;91.30;;;;;;5022631;28;20618;-68
2023/07/24 02:59:19;;;;;;;13.80;4.03;;;26.20;91.30;;;;;;5021769;28;20579;-68
2023/07/24 03:01:45;;;;;;;12.50;4.20;;;26.20;92.00;;;;;;4998800;28;20854;-67
2023/07/24 03:04:11;;;;;;;16.70;4.40;;;26.20;93.10;;;;;;5019840;28;20450;-67
2023/07/24 03:06:40;;;;;;;14.67;4.50;;;26.20;93.30;;;;;;5023269;28;20416;-67
2023/07/24 03:09:06;;;;;;;15.82;4.30;;;26.20;94.50;;;;;;5022552;28;20435;-68
2023/07/24 03:11:33;;;;;;;18.27;4.38;;;26.30;95.20;;;;;;5021549;28;20208;-68
2023/07/24 03:13:59;;;;;;;17.80;5.05;;;26.30;95.10;;;;;;5017660;28;20275;-68
2023/07/24 03:16:25;;;;;;;14.88;4.65;;;26.40;95.70;;;;;;5023770;28;20555;-68
2023/07/24 03:18:51;;;;;;;12.95;4.20;;;26.50;95.90;;;;;;5018939;28;20674;-67
2023/07/24 03:21:17;;;;;;;18.33;4.35;;;26.40;95.80;;;;;;5018147;28;20829;-67
2023/07/24 03:23:43;;;;;;;16.27;4.25;;;26.50;96.00;;;;;;5025930;28;20181;-68
2023/07/24 03:26:10;;;;;;;14.47;4.40;;;26.50;96.10;;;;;;5022950;28;20460;-68
2023/07/24 03:28:36;;;;;;;14.80;4.30;;;26.50;96.00;;;;;;5020943;28;20283;-68
2023/07/24 03:31:02;;;;;;;14.10;4.28;;;26.60;95.90;;;;;;5016045;28;20200;-67
2023/07/24 03:33:28;;;;;;;11.68;4.10;;;26.60;95.80;;;;;;5011830;28;20504;-68
2023/07/24 03:35:54;;;;;;;13.93;4.00;;;26.60;95.70;;;;;;5024196;28;20184;-67
2023/07/24 03:38:21;;;;;;;16.48;4.00;;;26.60;95.40;;;;;;5024919;28;20180;-67
2023/07/24 03:40:48;;;;;;;12.07;3.45;;;26.70;95.30;;;;;;5033699;28;20903;-68
2023/07/24 03:43:14;;;;;;;13.55;4.03;;;26.70;95.10;;;;;;5022554;28;20202;-68
2023/07/24 03:45:42;;;;;;;16.35;4.35;;;26.70;95.00;;;;;;5032612;28;20389;-68
2023/07/24 03:48:08;;;;;;;11.38;3.78;;;26.70;94.90;;;;;;5032258;28;20566;-67
2023/07/24 03:50:34;;;;;;;16.52;3.72;;;26.70;94.80;;;;;;5020904;28;20200;-67
2023/07/24 03:53:00;;;;;;;11.88;3.45;;;26.70;94.70;;;;;;5015810;28;20604;-68
2023/07/24 03:55:26;;;;;;;17.10;3.95;;;26.80;94.50;;;;;;5022829;28;20245;-68
2023/07/24 03:57:53;;;;;;;18.75;4.22;;;26.80;94.50;;;;;;5016998;28;20272;-68
2023/07/24 04:00:19;;;;;;;15.30;4.15;;;26.80;94.00;;;;;;5015628;28;20181;-68
2023/07/24 04:02:46;;;;;;;12.13;3.80;;;26.80;94.00;;;;;;5020920;28;20270;-68
2023/07/24 04:05:13;;;;;;;15.75;3.65;;;26.80;93.80;;;;;;5016321;28;20197;-68
2023/07/24 04:07:39;;;;;;;10.82;3.45;;;26.80;93.70;;;;;;5032110;28;20184;-68
2023/07/24 04:10:06;;;;;;;17.55;4.28;;;26.80;93.50;;;;;;5013256;28;20292;-68
2023/07/24 04:12:33;;;;;;;11.00;3.60;;;26.80;93.50;;;;;;5017149;28;20204;-68
2023/07/24 04:14:59;;;;;;;7.88;3.67;;;26.80;93.00;;;;;;5020961;28;20180;-69
2023/07/24 04:17:25;;;;;;;11.85;3.55;;;26.90;92.40;;;;;;5019229;28;20223;-68
2023/07/24 04:19:51;;;;;;;16.70;3.67;;;26.90;91.50;;;;;;5030744;28;20184;-68
2023/07/24 04:22:17;;;;;;;10.70;4.10;;;27.10;90.80;;;;;;5017829;28;20223;-68
2023/07/24 04:24:44;;;;;;;9.82;3.53;;;27.10;90.60;;;;;;5011898;28;20289;-68
2023/07/24 04:27:10;;;;;;;12.43;3.50;;;27.20;90.40;;;;;;5021691;28;20188;-68
2023/07/24 04:29:36;;;;;;;9.07;3.70;;;27.20;90.10;;;;;;5013443;28;20599;-67
2023/07/24 04:32:03;;;;;;;8.73;3.03;;;27.30;90.00;;;;;;5014471;28;20706;-67
2023/07/24 04:34:29;;;;;;;10.27;3.90;;;27.30;89.40;;;;;;5015069;28;20188;-67
2023/07/24 04:36:55;;;;;;;11.80;3.30;;;27.40;89.20;;;;;;5015905;28;20184;-67
2023/07/24 04:39:21;;;;;;;14.45;4.03;;;27.50;89.00;;;;;;5014955;28;20238;-67
2023/07/24 04:41:48;;;;;;;11.07;3.45;;;27.50;89.90;;;;;;5030814;28;20196;-68
2023/07/24 04:44:14;;;;;;;16.48;3.80;;;27.60;90.20;;;;;;5015013;28;20820;-68
2023/07/24 04:46:40;;;;;;;11.80;3.67;;;27.70;90.40;;;;;;5021317;28;20938;-68
2023/07/24 04:49:06;;;;;;;9.88;3.85;;;27.70;90.20;;;;;;5020796;28;21095;-68
2023/07/24 04:51:33;;;;;;;10.55;3.80;;;27.80;90.30;;;;;;5020109;28;20219;-68
2023/07/24 04:53:59;;;;;;;15.80;3.95;;;27.80;90.50;;;;;;5020935;28;20728;-68
2023/07/24 04:56:25;;;;;;;12.38;3.55;;;27.80;90.60;;;;;;5023507;28;20429;-68
2023/07/24 04:58:52;;;;;;;10.73;3.30;;;27.80;90.50;;;;;;5023839;28;20603;-68
2023/07/24 05:01:18;;;;;;;7.38;3.10;;;27.90;90.70;;;;;;5021071;28;20192;-68
2023/07/24 05:03:44;;;;;;;12.88;3.53;;;27.90;90.40;;;;;;5020532;28;20196;-68
2023/07/24 05:06:10;;;;;;;10.95;3.70;;;28.00;90.60;;;;;;5031558;28;20249;-68
2023/07/24 05:08:38;;;;;;;11.65;3.53;;;28.10;90.40;;;;;;5024566;28;20579;-68
2023/07/24 05:11:04;;;;;;;9.27;3.30;;;28.10;90.00;;;;;;5019419;28;20212;-68
2023/07/24 05:13:30;;;;;;;9.85;3.35;;;28.20;90.10;;;;;;5017059;28;20216;-67
2023/07/24 05:15:56;;;;;;;11.95;4.05;;;28.20;90.10;;;;;;5036317;28;20551;-68
2023/07/24 05:18:22;;;;;;;11.68;3.70;;;28.20;90.30;;;;;;5014588;28;20212;-68
2023/07/24 05:20:52;;;;;;;9.68;3.83;;;28.30;90.80;;;;;;5019697;28;20188;-68
2023/07/24 05:23:18;;;;;;;10.40;3.85;;;28.40;91.80;;;;;;5022375;28;20768;-68
2023/07/24 05:25:44;;;;;;;12.93;4.15;;;28.40;92.40;;;;;;5023543;28;20901;-67
2023/07/24 05:28:11;;;;;;;13.18;4.00;;;28.50;93.00;;;;;;5017421;28;20180;-68
2023/07/24 05:30:37;;;;;;;17.80;4.10;;;28.60;93.60;;;;;;5017831;28;20237;-68
2023/07/24 05:33:03;;;;;;;16.17;4.53;;;28.60;93.50;;;;;;5020648;28;20192;-68
2023/07/24 05:35:29;;;;;;;26.98;4.32;;;28.60;93.40;;;;;;5024116;28;20204;-68
2023/07/24 05:37:58;;;;;;;13.07;3.97;;;28.70;93.30;;;;;;5022378;28;20239;-68
2023/07/24 05:40:24;;;;;;;8.43;3.72;;;28.80;92.70;;;;;;5020677;28;20281;-67
2023/07/24 05:42:50;;;;;;;9.43;3.60;;;28.80;92.60;;;;;;5023026;28;20270;-67
2023/07/24 05:45:16;;;;;;;10.75;3.67;;;29.00;91.50;;;;;;5022234;28;20996;-67
2023/07/24 05:47:43;;;;;;;17.83;3.70;;;29.00;91.00;;;;;;5023724;28;20184;-68
2023/07/24 05:50:09;;;;;;;8.98;3.90;;;29.10;89.80;;;;;;5023365;28;20188;-68
2023/07/24 05:52:35;;;;;;;9.25;3.65;;;29.20;90.20;;;;;;5018344;28;20215;-68
2023/07/24 05:55:03;;;;;;;10.60;4.07;;;29.20;89.80;;;;;;5018094;28;20500;-68
2023/07/24 05:57:29;;;;;;;9.20;3.30;;;29.30;89.60;;;;;;5021720;28;20311;-68
2023/07/24 05:59:56;;;;;;;14.00;3.67;;;29.40;89.20;;;;;;5017293;28;20204;-68
2023/07/24 06:02:22;;;;;;;14.48;3.95;;;29.40;90.30;;;;;;5016557;28;20295;-68
2023/07/24 06:04:48;;;;;;;13.77;4.15;;;29.50;90.40;;;;;;5015661;28;20272;-68
2023/07/24 06:07:14;;;;;;;19.65;4.38;;;29.70;89.90;;;;;;5015562;28;20204;-68
2023/07/24 06:09:40;;;;;;;11.82;4.00;;;29.80;88.80;;;;;;5013824;28;20636;-68
2023/07/24 06:12:07;;;;;;;9.68;4.07;;;29.90;88.90;;;;;;5024242;28;20215;-68
2023/07/24 06:14:33;;;;;;;9.02;3.60;;;29.90;88.90;;;;;;5019553;28;20619;-69
2023/07/24 06:16:59;;;;;;;14.02;4.05;;;29.90;88.90;;;;;;5016793;28;20180;-69
2023/07/24 06:19:26;;;;;;;13.13;3.80;;;30.10;87.20;;;;;;5017986;28;20189;-69
2023/07/24 06:21:52;;;;;;;13.00;3.58;;;30.20;87.60;;;;;;5021836;28;20722;-69
2023/07/24 06:24:18;;;;;;;9.40;3.60;;;30.30;88.30;;;;;;5016456;28;20193;-69
2023/07/24 06:26:45;;;;;;;14.98;4.03;;;30.30;87.30;;;;;;5021094;28;20192;-69
2023/07/24 06:29:11;;;;;;;9.65;3.70;;;30.30;87.60;;;;;;5017312;28;20242;-69
2023/07/24 06:31:37;;;;;;;10.85;3.15;;;30.40;88.70;;;;;;5033054;28;20219;-69
2023/07/24 06:34:03;;;;;;;16.05;3.90;;;30.60;88.00;;;;;;5018678;28;20191;-69
2023/07/24 06:36:30;;;;;;;7.10;3.65;;;30.70;88.80;;;;;;5021320;28;20223;-69
2023/07/24 06:38:56;;;;;;;14.05;4.10;;;30.80;86.90;;;;;;5017727;28;20247;-69
2023/07/24 06:41:22;;;;;;;15.90;4.18;;;31.10;89.60;;;;;;5019391;28;20667;-69
2023/07/24 06:43:50;;;;;;;12.52;4.13;;;31.30;90.30;;;;;;5016477;28;20493;-69
2023/07/24 06:46:17;;;;;;;10.90;3.55;;;31.50;90.00;;;;;;5014982;28;20199;-69
2023/07/24 06:48:44;;;;;;;14.50;3.88;;;31.40;90.00;;;;;;5016016;28;20188;-69
2023/07/24 06:51:10;;;;;;;13.43;3.70;;;31.50;90.00;;;;;;5015183;28;20220;-69
2023/07/24 06:53:37;;;;;;;15.40;4.03;;;31.50;89.20;;;;;;5028166;28;20632;-69
2023/07/24 06:56:03;;;;;;;10.60;4.05;;;31.70;90.10;;;;;;5015123;28;20606;-69
2023/07/24 06:58:29;;;;;;;13.45;4.35;;;32.00;89.60;;;;;;5007167;28;20192;-69
2023/07/24 07:00:55;;;;;;;10.43;3.55;;;32.10;90.10;;;;;;5013301;28;20192;-69
2023/07/24 07:03:22;;;;;;;16.95;4.35;;;32.10;91.70;;;;;;5007653;28;20193;-68
2023/07/24 07:05:49;;;;;;;14.45;4.45;;;32.10;92.10;;;;;;5012108;28;20200;-68
2023/07/24 07:08:15;;;;;;;16.15;4.40;;;32.10;92.20;;;;;;5007739;28;20196;-68
2023/07/24 07:10:41;;;;;;;17.30;3.67;;;32.20;93.20;;;;;;5004944;28;20189;-69
2023/07/24 07:13:07;;;;;;;14.63;3.83;;;32.10;93.20;;;;;;5010022;28;20203;-68
2023/07/24 07:15:35;;;;;;;18.35;4.90;;;32.20;93.60;;;;;;5012096;28;20177;-68
2023/07/24 07:18:01;;;;;;;9.00;3.55;;;32.20;93.20;;;;;;4996167;28;20231;-68
2023/07/24 07:20:28;;;;;;;17.20;4.55;;;32.20;93.80;;;;;;4987814;28;20184;-69
2023/07/24 07:22:54;;;;;;;13.95;4.13;;;32.20;94.60;;;;;;5005150;28;20185;-68
2023/07/24 07:25:20;;;;;;;13.55;4.47;;;32.20;95.00;;;;;;4990202;28;20602;-68
2023/07/24 07:27:46;;;;;;;14.90;4.22;;;32.10;95.40;;;;;;5005573;28;20315;-68
2023/07/24 07:30:13;;;;;;;18.77;4.75;;;32.10;95.60;;;;;;5007807;28;20203;-69
2023/07/24 07:32:39;;;;;;;17.55;4.28;;;32.10;95.90;;;;;;5009490;28;20201;-69
2023/07/24 07:35:06;;;;;;;15.73;4.50;;;32.10;95.50;;;;;;5013869;28;20729;-69
2023/07/24 07:37:33;;;;;;;14.68;4.65;;;32.20;95.30;;;;;;5009703;28;20965;-69
2023/07/24 07:39:59;;;;;;;19.63;4.75;;;32.20;95.30;;;;;;5006325;28;20196;-69
2023/07/24 07:42:25;;;;;;;20.02;4.53;;;32.20;94.90;;;;;;5022955;28;20220;-69
2023/07/24 07:44:51;;;;;;;17.50;4.30;;;32.20;94.00;;;;;;5008821;28;20287;-69
2023/07/24 07:47:17;;;;;;;14.15;4.30;;;32.30;93.90;;;;;;5010550;28;20193;-69
2023/07/24 07:49:44;;;;;;;12.88;4.05;;;32.40;94.50;;;;;;5007795;28;20219;-69
2023/07/24 07:52:10;;;;;;;11.88;4.00;;;32.40;94.90;;;;;;5008971;28;20248;-69
2023/07/24 07:54:36;;;;;;;15.77;3.92;;;32.50;94.90;;;;;;5022874;28;20181;-69
2023/07/24 07:57:04;;;;;;;13.77;4.15;;;32.60;94.90;;;;;;5011350;28;20194;-69
2023/07/24 07:59:31;;;;;;;12.25;4.07;;;32.70;95.80;;;;;;5022537;28;20583;-69
2023/07/24 08:01:57;;;;;;;21.42;4.65;;;32.80;94.90;;;;;;5013262;28;20244;-69
2023/07/24 08:04:23;;;;;;;14.82;3.95;;;32.80;94.90;;;;;;5010103;28;20216;-69
2023/07/24 08:06:49;;;;;;;13.95;4.30;;;32.90;96.00;;;;;;5025706;28;20195;-69
2023/07/24 08:09:17;;;;;;;17.40;4.50;;;32.90;96.00;;;;;;5005521;28;20215;-69
2023/07/24 08:11:43;;;;;;;16.52;4.68;;;33.00;95.10;;;;;;5008119;28;20293;-69
2023/07/24 08:14:09;;;;;;;18.83;4.68;;;33.10;95.90;;;;;;5012469;28;20195;-69
2023/07/24 08:16:36;;;;;;;21.30;4.43;;;33.20;95.70;;;;;;5024154;28;20202;-69
2023/07/24 08:19:02;;;;;;;13.70;4.32;;;33.30;95.20;;;;;;5007698;28;20715;-69
2023/07/24 08:21:28;;;;;;;14.48;4.40;;;33.40;95.00;;;;;;5011757;28;20191;-69
2023/07/24 08:23:54;;;;;;;12.75;4.30;;;33.50;94.80;;;;;;5012280;28;20251;-69
2023/07/24 08:26:21;;;;;;;14.50;4.22;;;33.50;94.30;;;;;;5012460;28;20185;-69
2023/07/24 08:28:47;;;;;;;12.70;4.75;;;33.70;94.00;;;;;;5015332;28;20176;-69
2023/07/24 08:31:13;;;;;;;13.00;4.75;;;33.80;93.80;;;;;;5012539;28;20282;-69
2023/07/24 08:33:39;;;;;;;15.52;4.50;;;33.80;94.00;;;;;;5013987;28;20492;-69
2023/07/24 08:36:07;;;;;;;15.55;4.10;;;33.90;94.50;;;;;;5024797;28;20242;-69
2023/07/24 08:38:35;;;;;;;10.85;4.65;;;33.90;94.60;;;;;;5012012;28;20211;-69
2023/07/24 08:41:13;;;;;;;17.13;4.18;;;34.00;94.80;;;;;;5025096;28;20196;-69
2023/07/24 08:43:42;;;;;;;14.65;4.45;;;34.10;95.20;;;;;;5011730;28;20181;-69
2023/07/24 08:46:10;;;;;;;15.23;4.88;;;34.30;95.30;;;;;;5017530;28;20251;-69
2023/07/24 08:48:42;;;;;;;13.15;4.55;;;34.30;95.40;;;;;;5027609;28;20192;-69
2023/07/24 08:51:14;;;;;;;15.52;4.10;;;34.30;95.60;;;;;;5009875;28;20218;-69
2023/07/24 08:53:44;;;;;;;11.82;4.75;;;34.30;95.70;;;;;;5012026;28;20189;-69
2023/07/24 08:56:12;;;;;;;13.15;4.05;;;34.40;95.90;;;;;;5016409;28;20215;-69
2023/07/24 08:58:41;;;;;;;16.60;4.70;;;34.40;96.30;;;;;;5012878;28;20296;-69
2023/07/24 09:01:08;;;;;;;14.85;4.38;;;34.50;96.20;;;;;;5015746;28;20250;-69
2023/07/24 09:03:36;;;;;;;17.70;5.40;;;34.50;96.00;;;;;;5016283;28;20203;-69
2023/07/24 09:06:09;;;;;;;18.08;4.50;;;34.70;95.70;;;;;;5012788;28;20768;-69
2023/07/24 09:08:42;;;;;;;13.00;4.05;;;34.80;95.60;;;;;;5008995;28;20214;-69
2023/07/24 09:11:10;;;;;;;16.25;4.60;;;34.80;95.70;;;;;;5006998;28;20212;-69
2023/07/24 09:13:43;;;;;;;13.85;4.53;;;34.80;95.90;;;;;;5024474;28;20580;-69
2023/07/24 09:16:22;;;;;;;14.07;3.80;;;34.90;95.70;;;;;;5024360;28;20180;-69
2023/07/24 09:18:48;;;;;;;23.13;4.32;;;35.00;95.60;;;;;;5015842;28;20679;-69
2023/07/24 09:21:14;;;;;;;16.38;4.65;;;35.20;95.20;;;;;;5006898;28;22634;-69
2023/07/24 09:23:43;;;;;;;13.32;4.10;;;35.40;95.10;;;;;;5009529;28;20855;-69
2023/07/24 09:26:09;;;;;;;13.75;3.97;;;35.40;95.70;;;;;;5005495;28;20184;-69
2023/07/24 09:28:36;;;;;;;17.13;4.70;;;35.70;95.70;;;;;;5013404;28;20229;-69
2023/07/24 09:31:04;;;;;;;23.83;5.10;;;35.70;94.90;;;;;;5015022;28;20675;-69
2023/07/24 09:33:41;;;;;;;14.60;4.28;;;35.70;94.60;;;;;;5010242;28;20215;-69
2023/07/24 09:36:10;;;;;;;17.38;4.72;;;35.90;95.30;;;;;;5009753;28;20222;-69
2023/07/24 09:38:39;;;;;;;16.33;4.03;;;35.90;94.80;;;;;;5009466;28;20185;-69
2023/07/24 09:41:06;;;;;;;23.52;4.28;;;36.00;95.20;;;;;;5015921;28;20184;-69
2023/07/24 09:43:35;;;;;;;13.38;4.35;;;36.10;94.90;;;;;;5011965;28;20200;-69
2023/07/24 09:46:05;;;;;;;17.33;4.90;;;36.20;95.00;;;;;;5008620;28;20463;-69
2023/07/24 09:48:32;;;;;;;14.93;4.18;;;36.30;94.60;;;;;;5007300;28;20189;-69
2023/07/24 09:51:00;;;;;;;15.23;4.47;;;36.40;93.90;;;;;;5015119;28;20334;-69
2023/07/24 09:54:04;;;;;;;17.65;4.35;;;36.50;94.20;;;;;;5011399;28;20196;-69
2023/07/24 09:56:33;;;;;;;15.85;4.63;;;36.60;92.70;;;;;;5011022;28;20184;-69
2023/07/24 09:59:02;;;;;;;11.73;4.20;;;36.70;93.60;;;;;;5012018;28;20191;-69
2023/07/24 10:01:32;;;;;;;11.48;4.03;;;36.90;92.80;;;;;;5011467;28;20750;-69
2023/07/24 10:04:00;;;;;;;14.68;4.32;;;36.90;91.80;;;;;;5015809;28;20188;-69
2023/07/24 10:06:29;;;;;;;15.43;4.28;;;37.00;92.70;;;;;;5011785;28;20185;-69
2023/07/24 10:08:57;;;;;;;11.60;4.43;;;37.10;92.30;;;;;;5007760;28;20197;-69
2023/07/24 10:11:25;;;;;;;9.70;3.70;;;37.10;90.30;;;;;;5011979;28;20729;-69
2023/07/24 10:13:53;;;;;;;11.80;4.00;;;37.30;90.50;;;;;;5010521;28;20279;-69
2023/07/24 10:16:20;;;;;;;19.83;4.15;;;37.20;90.10;;;;;;5012291;28;20176;-69
2023/07/24 10:18:47;;;;;;;15.05;4.78;;;37.30;90.80;;;;;;5014644;28;20851;-69
2023/07/24 10:21:14;;;;;;;17.38;4.38;;;37.40;89.60;;;;;;5007776;28;20583;-69
2023/07/24 10:23:48;;;;;;;14.38;4.65;;;37.40;90.60;;;;;;5016193;28;20247;-69
2023/07/24 10:26:20;;;;;;;10.68;4.15;;;37.50;90.00;;;;;;5015955;28;20204;-69
2023/07/24 10:28:48;;;;;;;13.50;4.55;;;37.50;90.80;;;;;;5010269;28;20872;-69
2023/07/24 10:31:27;;;;;;;12.32;4.45;;;37.40;90.40;;;;;;5014298;28;20760;-69
2023/07/24 10:33:55;;;;;;;15.90;4.88;;;37.50;90.10;;;;;;5010439;28;20196;-69
2023/07/24 10:36:23;;;;;;;20.15;4.65;;;37.50;90.80;;;;;;5018251;28;20204;-69
2023/07/24 10:38:56;;;;;;;16.58;4.45;;;37.40;88.10;;;;;;5014928;28;20232;-69
2023/07/24 10:41:33;;;;;;;13.43;4.50;;;37.50;90.00;;;;;;5013719;28;20242;-69
2023/07/24 10:44:00;;;;;;;19.08;4.38;;;37.50;90.50;;;;;;5014634;28;20262;-69
2023/07/24 10:46:38;;;;;;;14.95;4.50;;;37.50;90.20;;;;;;5010253;28;20199;-70
2023/07/24 10:49:05;;;;;;;14.32;4.72;;;37.50;90.50;;;;;;5022670;28;20283;-70
2023/07/24 10:51:37;;;;;;;18.92;4.97;;;37.40;91.20;;;;;;5008520;28;20228;-70
2023/07/24 10:54:05;;;;;;;18.40;4.85;;;37.40;91.60;;;;;;5015806;28;20184;-70
2023/07/24 10:56:32;;;;;;;13.15;4.28;;;37.30;92.20;;;;;;5011327;28;20216;-70
2023/07/24 10:59:06;;;;;;;13.88;4.55;;;37.10;92.40;;;;;;5011503;28;20608;-70
2023/07/24 11:01:33;;;;;;;16.83;4.70;;;36.90;92.30;;;;;;5012003;28;20587;-70
2023/07/24 11:04:00;;;;;;;22.98;4.78;;;36.80;93.20;;;;;;5013044;28;20216;-71
2023/07/24 11:06:28;;;;;;;13.73;4.53;;;36.50;93.60;;;;;;5016997;28;20579;-70
2023/07/24 11:08:59;;;;;;;14.98;4.50;;;36.30;93.90;;;;;;5010679;28;20855;-70
2023/07/24 11:11:33;;;;;;;14.75;4.68;;;36.20;94.20;;;;;;5010126;28;20227;-70
2023/07/24 11:14:02;;;;;;;13.57;4.22;;;36.00;93.90;;;;;;5017212;28;20260;-71
2023/07/24 11:16:33;;;;;;;15.85;4.82;;;35.90;93.90;;;;;;5006913;28;20588;-71
2023/07/24 11:18:59;;;;;;;18.42;4.60;;;35.80;94.70;;;;;;5007908;28;20199;-71
2023/07/24 11:21:25;;;;;;;20.50;4.72;;;35.60;94.30;;;;;;5008500;28;20189;-70
2023/07/24 11:23:55;;;;;;;15.13;4.35;;;35.40;95.00;;;;;;5014327;28;20861;-70
2023/07/24 11:26:26;;;;;;;15.52;4.93;;;35.20;95.00;;;;;;5013651;28;20249;-70
2023/07/24 11:28:54;;;;;;;20.23;5.70;;;35.20;95.90;;;;;;5010400;28;20200;-70
2023/07/24 11:31:20;;;;;;;13.55;6.35;;;35.20;96.70;;;;;;5007563;28;20235;-70
2023/07/24 11:33:51;;;;;;;12.48;6.05;;;35.20;97.00;;;;;;5011386;28;20211;-70
2023/07/24 11:36:18;;;;;;;16.30;6.20;;;35.10;96.90;;;;;;5015231;28;20188;-70
2023/07/24 11:38:46;;;;;;;18.08;7.00;;;34.90;98.10;;;;;;5016541;28;20195;-70
2023/07/24 11:41:15;;;;;;;19.17;6.53;;;34.80;98.30;;;;;;5021089;28;20917;-70
2023/07/24 11:43:50;;;;;;;22.80;7.63;;;34.80;98.20;;;;;;5006959;28;20246;-70
2023/07/24 11:46:28;;;;;;;18.65;6.82;;;34.80;98.20;;;;;;5013268;28;20195;-70
2023/07/24 11:48:56;;;;;;;18.45;6.97;;;34.80;98.10;;;;;;5008038;28;20197;-70
2023/07/24 11:51:25;;;;;;;24.00;6.40;;;34.80;97.60;;;;;;5009662;28;20603;-70
2023/07/24 11:53:52;;;;;;;18.90;6.50;;;34.70;97.50;;;;;;5007554;28;20188;-71
2023/07/24 11:56:19;;;;;;;19.13;7.35;;;34.70;96.90;;;;;;4993000;28;20725;-71
2023/07/24 11:58:46;;;;;;;19.20;6.88;;;34.70;96.90;;;;;;5008174;28;20200;-71
2023/07/24 12:01:15;;;;;;;20.65;7.10;;;34.60;96.30;;;;;;5006809;28;20223;-71
2023/07/24 12:03:42;;;;;;;15.20;6.93;;;34.60;96.30;;;;;;5007102;28;20902;-70
2023/07/24 12:06:16;;;;;;;17.67;7.30;;;34.70;96.20;;;;;;5013468;28;20659;-70
2023/07/24 12:08:44;;;;;;;14.95;7.20;;;34.70;96.00;;;;;;5010515;28;20222;-71
2023/07/24 12:11:19;;;;;;;19.38;7.15;;;34.80;95.90;;;;;;5022641;28;20250;-71
2023/07/24 12:13:46;;;;;;;17.38;7.75;;;34.90;95.90;;;;;;5009324;28;20198;-70
2023/07/24 12:16:12;;;;;;;20.35;7.22;;;34.80;96.10;;;;;;5010887;28;20267;-70
2023/07/24 12:18:39;;;;;;;24.80;7.90;;;34.90;95.90;;;;;;5002907;28;20259;-70
2023/07/24 12:21:06;;;;;;;15.70;7.70;;;34.90;95.60;;;;;;5008714;28;20192;-70
2023/07/24 12:23:32;;;;;;;23.42;9.10;;;34.90;95.30;;;;;;5010789;28;20554;-70
2023/07/24 12:25:58;;;;;;;23.00;8.95;;;34.80;95.30;;;;;;5013920;28;20189;-70
2023/07/24 12:28:25;;;;;;;22.00;8.35;;;34.80;95.10;;;;;;5016758;28;20215;-70
2023/07/24 12:30:51;;;;;;;19.98;8.93;;;34.70;95.30;;;;;;5008879;28;20266;-70
2023/07/24 12:33:17;;;;;;;19.92;8.95;;;34.50;95.00;;;;;;5012698;28;20783;-70
2023/07/24 12:35:44;;;;;;;23.23;8.18;;;34.50;95.20;;;;;;5007917;28;20195;-70
2023/07/24 12:38:10;;;;;;;19.77;8.13;;;34.60;94.70;;;;;;5015177;28;20678;-70
2023/07/24 12:40:36;;;;;;;24.10;8.15;;;34.50;94.80;;;;;;5015881;28;20188;-70